Time;durP1;ratioP1;P1;durP2;ratioP2;P2;SDS_P1;SDS_P2;PMS_P1;PMS_P2;Temp;Humidity;BMP_temperature;BMP_pressure;BME280_temperature;BME280_humidity;BME280_pressure;Samples;Min_cycle;Max_cycle;Signal;HPM_P1;HPM_P2
2023/06/30 00:01:59;;;;;;;1.73;1.03;;;14.20;1.00;;;;;;5058507;28;20606;-84
2023/06/30 00:04:29;;;;;;;1.90;1.10;;;14.20;1.00;;;;;;5039059;28;20203;-85
2023/06/30 00:06:56;;;;;;;2.60;1.10;;;14.10;1.00;;;;;;5038446;28;20725;-86
2023/06/30 00:09:24;;;;;;;1.87;1.10;;;14.10;1.00;;;;;;5038941;28;20260;-87
2023/06/30 00:11:54;;;;;;;2.67;1.23;;;14.00;1.00;;;;;;5038653;28;20285;-86
2023/06/30 00:14:23;;;;;;;2.40;1.70;;;14.00;1.00;;;;;;5038723;28;20210;-87
2023/06/30 00:16:50;;;;;;;2.20;1.33;;;14.00;28.70;;;;;;5053816;28;20194;-87
2023/06/30 00:19:18;;;;;;;3.03;1.20;;;13.90;56.30;;;;;;5058447;28;20197;-87
2023/06/30 00:21:45;;;;;;;1.53;1.00;;;13.90;99.10;;;;;;5049800;28;20218;-86
2023/06/30 00:24:14;;;;;;;2.47;1.00;;;13.90;99.90;;;;;;5038474;28;20541;-87
2023/06/30 00:26:41;;;;;;;2.60;1.00;;;13.90;99.90;;;;;;5038422;28;20276;-87
2023/06/30 00:29:09;;;;;;;2.03;1.00;;;13.80;99.90;;;;;;5051739;28;20208;-86
2023/06/30 00:31:36;;;;;;;2.00;1.03;;;13.80;99.90;;;;;;5057972;28;20244;-86
2023/06/30 00:34:03;;;;;;;1.53;1.00;;;13.80;99.90;;;;;;5057855;28;20252;-86
2023/06/30 00:36:31;;;;;;;2.40;1.40;;;13.80;99.90;;;;;;5058199;28;20281;-87
2023/06/30 00:38:58;;;;;;;3.53;1.20;;;13.70;99.90;;;;;;5057902;28;20206;-86
2023/06/30 00:41:25;;;;;;;1.60;1.00;;;13.70;99.90;;;;;;5058096;28;20232;-86
2023/06/30 00:43:52;;;;;;;2.33;1.07;;;13.60;99.90;;;;;;5057743;28;20229;-86
2023/06/30 00:46:20;;;;;;;2.20;0.90;;;13.60;99.90;;;;;;5057420;28;20201;-85
2023/06/30 00:48:47;;;;;;;2.00;1.00;;;13.60;99.90;;;;;;5057660;28;20302;-86
2023/06/30 00:51:14;;;;;;;2.33;1.13;;;13.60;99.90;;;;;;5047617;28;20206;-86
2023/06/30 00:53:42;;;;;;;1.90;0.77;;;13.60;1.00;;;;;;5037708;28;20783;-87
2023/06/30 00:56:09;;;;;;;2.33;1.30;;;13.60;1.00;;;;;;5037728;28;20235;-86
2023/06/30 00:58:36;;;;;;;4.90;1.40;;;13.50;1.00;;;;;;5037626;28;20198;-86
2023/06/30 01:01:10;;;;;;;4.00;1.30;;;13.50;1.00;;;;;;5037510;28;20206;-85
2023/06/30 01:03:42;;;;;;;3.07;1.70;;;13.50;1.00;;;;;;5058041;28;20190;-89
2023/06/30 01:06:16;;;;;;;3.00;1.10;;;13.60;1.00;;;;;;5046872;28;20207;-87
2023/06/30 01:08:49;;;;;;;2.10;1.00;;;13.60;1.00;;;;;;5037220;28;20229;-84
2023/06/30 01:11:18;;;;;;;7.07;1.53;;;13.60;1.00;;;;;;5037277;28;20197;-84
2023/06/30 01:13:46;;;;;;;3.10;1.20;;;13.60;1.00;;;;;;5037001;28;20210;-85
2023/06/30 01:16:14;;;;;;;5.00;1.30;;;13.60;1.00;;;;;;5037440;28;20305;-86
2023/06/30 01:18:45;;;;;;;3.10;1.30;;;13.60;1.00;;;;;;5037328;28;20286;-86
2023/06/30 01:21:13;;;;;;;3.63;1.27;;;13.70;1.00;;;;;;5037063;28;20237;-84
2023/06/30 01:23:45;;;;;;;4.93;1.60;;;13.70;1.00;;;;;;5036933;28;20213;-86
2023/06/30 01:26:13;;;;;;;4.80;1.60;;;13.70;1.00;;;;;;5037152;28;20229;-87
2023/06/30 01:28:40;;;;;;;3.70;1.27;;;13.80;1.00;;;;;;5037226;28;20284;-87
2023/06/30 01:31:08;;;;;;;2.77;1.00;;;13.80;1.00;;;;;;5036960;28;20285;-86
2023/06/30 01:33:37;;;;;;;2.40;1.00;;;13.70;1.00;;;;;;5037131;28;20238;-86
2023/06/30 01:36:07;;;;;;;2.97;1.13;;;13.70;1.00;;;;;;5037123;28;20317;-84
2023/06/30 01:38:34;;;;;;;5.77;1.40;;;13.80;1.00;;;;;;5036994;28;20198;-85
2023/06/30 01:41:01;;;;;;;4.30;1.10;;;13.80;1.00;;;;;;5037049;28;20272;-87
2023/06/30 01:43:30;;;;;;;2.37;1.10;;;13.90;1.00;;;;;;5036337;28;20241;-88
2023/06/30 01:45:57;;;;;;;3.77;1.50;;;13.90;1.00;;;;;;5038287;28;20238;-86
2023/06/30 01:48:25;;;;;;;1.67;1.03;;;13.90;1.00;;;;;;5036501;28;20254;-87
2023/06/30 01:50:54;;;;;;;5.03;1.47;;;13.90;1.00;;;;;;5036743;28;20203;-87
2023/06/30 01:53:24;;;;;;;5.63;1.40;;;14.00;1.00;;;;;;5041401;28;20206;-87
2023/06/30 01:55:54;;;;;;;2.63;1.40;;;14.00;1.00;;;;;;5055811;28;20237;-88
2023/06/30 01:58:21;;;;;;;3.37;1.20;;;14.00;99.90;;;;;;5056392;28;20193;-90
2023/06/30 02:00:48;;;;;;;4.87;1.40;;;14.00;1.00;;;;;;5055831;28;20509;-85
2023/06/30 02:03:15;;;;;;;3.57;1.30;;;14.10;1.00;;;;;;5056634;28;20204;-85
2023/06/30 02:05:42;;;;;;;5.20;1.37;;;14.10;1.00;;;;;;5056422;28;20194;-83
2023/06/30 02:08:09;;;;;;;6.07;1.70;;;14.20;1.00;;;;;;5056264;28;20720;-86
2023/06/30 02:10:37;;;;;;;3.57;1.40;;;14.30;1.00;;;;;;5038824;28;20288;-86
2023/06/30 02:13:04;;;;;;;5.50;1.57;;;14.30;1.00;;;;;;5036204;28;20289;-84
2023/06/30 02:15:31;;;;;;;5.27;1.67;;;14.40;1.00;;;;;;5036140;28;20205;-87
2023/06/30 02:17:58;;;;;;;6.13;1.90;;;14.40;1.00;;;;;;5035180;28;20552;-86
2023/06/30 02:20:25;;;;;;;6.53;1.80;;;14.30;1.00;;;;;;5036137;28;20281;-87
2023/06/30 02:22:52;;;;;;;5.63;1.60;;;14.40;1.00;;;;;;5035592;28;20566;-82
2023/06/30 02:25:19;;;;;;;3.73;1.80;;;14.40;99.90;;;;;;5035249;28;20595;-88
2023/06/30 02:27:47;;;;;;;6.20;1.70;;;14.40;99.90;;;;;;5035511;28;20276;-86
2023/06/30 02:30:14;;;;;;;4.33;1.90;;;14.50;1.00;;;;;;5035803;28;20238;-83
2023/06/30 02:32:41;;;;;;;6.27;1.63;;;14.50;8.10;;;;;;5034961;28;20206;-86
2023/06/30 02:35:10;;;;;;;4.27;1.53;;;14.40;99.90;;;;;;5035718;28;20210;-85
2023/06/30 02:37:37;;;;;;;4.47;1.67;;;14.40;99.90;;;;;;5034963;28;20700;-84
2023/06/30 02:40:05;;;;;;;2.07;1.43;;;14.40;99.90;;;;;;5035525;28;20587;-85
2023/06/30 02:42:32;;;;;;;5.83;1.73;;;14.40;99.90;;;;;;5034877;28;20199;-85
2023/06/30 02:45:01;;;;;;;3.60;1.43;;;14.40;99.90;;;;;;5035101;28;20268;-85
2023/06/30 02:47:28;;;;;;;6.33;2.00;;;14.40;99.90;;;;;;5035376;28;20287;-86
2023/06/30 02:49:55;;;;;;;8.53;2.00;;;14.40;1.00;;;;;;5035246;28;20195;-86
2023/06/30 02:52:22;;;;;;;8.40;1.90;;;14.40;1.00;;;;;;5035053;28;20209;-84
2023/06/30 02:54:49;;;;;;;5.77;1.50;;;14.40;99.90;;;;;;5035527;28;20513;-84
2023/06/30 02:57:16;;;;;;;7.27;1.83;;;14.40;99.90;;;;;;5034647;28;20633;-85
2023/06/30 02:59:43;;;;;;;8.60;1.77;;;14.40;99.90;;;;;;5034854;28;20205;-85
2023/06/30 03:02:11;;;;;;;5.87;1.80;;;14.40;99.90;;;;;;5035002;28;20563;-82
2023/06/30 03:04:38;;;;;;;4.03;1.60;;;14.40;99.90;;;;;;5034902;28;20210;-85
2023/06/30 03:07:05;;;;;;;5.17;2.00;;;14.40;99.90;;;;;;5034853;28;20230;-86
2023/06/30 03:09:32;;;;;;;4.90;1.43;;;14.40;99.90;;;;;;5035254;28;20195;-87
2023/06/30 03:11:59;;;;;;;5.77;1.70;;;14.40;99.90;;;;;;5035318;28;20493;-83
2023/06/30 03:14:26;;;;;;;5.33;2.07;;;14.40;99.90;;;;;;5035149;28;20206;-85
2023/06/30 03:16:53;;;;;;;6.73;1.90;;;14.40;1.00;;;;;;5054863;28;20670;-83
2023/06/30 03:19:21;;;;;;;6.27;2.03;;;14.40;1.00;;;;;;5050018;28;20191;-88
2023/06/30 03:21:48;;;;;;;5.23;1.70;;;14.40;1.00;;;;;;5034672;28;20230;-83
2023/06/30 03:24:15;;;;;;;5.50;1.67;;;14.50;1.00;;;;;;5034453;28;20202;-87
2023/06/30 03:26:42;;;;;;;4.20;1.80;;;14.40;1.00;;;;;;5034084;28;20533;-83
2023/06/30 03:29:09;;;;;;;4.03;1.40;;;14.40;1.00;;;;;;5035800;28;20234;-82
2023/06/30 03:31:36;;;;;;;2.97;1.70;;;14.40;1.00;;;;;;5038468;28;20306;-85
2023/06/30 03:34:03;;;;;;;4.77;1.57;;;14.40;1.00;;;;;;5054331;28;20565;-87
2023/06/30 03:36:32;;;;;;;6.97;2.00;;;14.40;1.00;;;;;;5058686;28;20201;-88
2023/06/30 03:38:59;;;;;;;8.47;2.03;;;14.40;1.00;;;;;;5058812;28;20194;-85
2023/06/30 03:41:26;;;;;;;7.80;2.07;;;14.30;99.90;;;;;;5058549;28;20233;-84
2023/06/30 03:43:53;;;;;;;3.67;1.73;;;14.30;99.90;;;;;;5058612;28;20197;-85
2023/06/30 03:46:20;;;;;;;4.23;1.63;;;14.30;1.00;;;;;;5055145;28;20252;-87
2023/06/30 03:48:47;;;;;;;3.30;1.90;;;14.30;1.00;;;;;;5037890;28;20218;-83
2023/06/30 03:51:14;;;;;;;5.10;2.30;;;14.30;1.00;;;;;;5038102;28;20230;-85
2023/06/30 03:53:44;;;;;;;4.83;2.17;;;14.30;1.00;;;;;;5038727;28;20264;-83
2023/06/30 03:56:10;;;;;;;7.07;2.30;;;14.40;99.90;;;;;;5037662;28;20703;-84
2023/06/30 03:58:37;;;;;;;6.80;2.93;;;14.40;99.90;;;;;;5038373;28;20195;-82
2023/06/30 04:01:04;;;;;;;5.40;2.03;;;14.40;1.00;;;;;;5038398;28;20525;-83
2023/06/30 04:03:32;;;;;;;5.80;1.90;;;14.40;1.00;;;;;;5038033;28;20206;-80
2023/06/30 04:05:59;;;;;;;6.10;2.17;;;14.50;1.00;;;;;;5058232;28;20256;-83
2023/06/30 04:08:26;;;;;;;5.93;2.27;;;14.50;1.00;;;;;;5058110;28;20229;-85
2023/06/30 04:10:54;;;;;;;3.33;2.40;;;14.50;1.00;;;;;;5057899;28;20221;-84
2023/06/30 04:13:21;;;;;;;6.17;2.90;;;14.50;99.90;;;;;;5039960;28;20217;-85
2023/06/30 04:15:48;;;;;;;5.75;2.28;;;14.60;99.90;;;;;;5037971;28;20202;-89
2023/06/30 04:18:15;;;;;;;4.27;2.07;;;14.60;99.90;;;;;;5037552;28;20207;-86
2023/06/30 04:20:42;;;;;;;7.27;2.00;;;14.70;99.90;;;;;;5037428;28;20631;-83
2023/06/30 04:23:09;;;;;;;6.03;2.03;;;14.90;99.90;;;;;;5037540;28;20237;-84
2023/06/30 04:25:36;;;;;;;4.63;1.93;;;15.00;99.90;;;;;;5038837;28;20204;-85
2023/06/30 04:28:04;;;;;;;5.53;2.37;;;15.10;43.00;;;;;;5055364;28;20214;-86
2023/06/30 04:30:31;;;;;;;2.30;1.80;;;15.20;42.60;;;;;;5057450;28;20208;-85
2023/06/30 04:32:58;;;;;;;6.57;2.10;;;15.30;1.00;;;;;;5054089;28;20674;-86
2023/06/30 04:35:25;;;;;;;5.13;2.10;;;15.30;1.00;;;;;;5038395;28;20230;-88
2023/06/30 04:37:52;;;;;;;5.83;2.00;;;15.40;1.00;;;;;;5038368;28;20226;-87
2023/06/30 04:40:20;;;;;;;8.40;2.47;;;15.50;1.00;;;;;;5037647;28;20245;-87
2023/06/30 04:42:47;;;;;;;4.77;2.20;;;15.50;1.00;;;;;;5038121;28;20199;-86
2023/06/30 04:45:15;;;;;;;5.60;2.20;;;15.60;1.00;;;;;;5037077;28;20517;-89
2023/06/30 04:47:42;;;;;;;5.25;2.35;;;15.70;89.70;;;;;;5037136;28;20301;-84
2023/06/30 04:50:10;;;;;;;4.57;1.75;;;15.80;99.90;;;;;;5050245;28;20292;-83
2023/06/30 04:52:36;;;;;;;7.65;1.70;;;15.80;99.90;;;;;;5057331;28;20285;-84
2023/06/30 04:55:04;;;;;;;6.53;2.58;;;16.00;99.90;;;;;;5057350;28;20493;-86
2023/06/30 04:57:30;;;;;;;4.85;1.83;;;16.00;99.90;;;;;;5059184;28;20320;-87
2023/06/30 04:59:57;;;;;;;3.83;1.77;;;16.10;99.90;;;;;;5043709;28;20205;-89
2023/06/30 05:02:26;;;;;;;5.65;2.00;;;16.20;99.90;;;;;;5037348;28;20249;-85
2023/06/30 05:04:53;;;;;;;7.32;2.30;;;16.20;99.90;;;;;;5036989;28;20282;-86
2023/06/30 05:07:20;;;;;;;9.63;2.25;;;16.30;99.90;;;;;;5037388;28;20263;-87
2023/06/30 05:09:47;;;;;;;9.50;2.25;;;16.50;99.90;;;;;;5037505;28;20227;-87
2023/06/30 05:12:14;;;;;;;6.57;2.03;;;16.50;54.10;;;;;;5036994;28;20220;-86
2023/06/30 05:14:42;;;;;;;5.82;2.10;;;16.60;99.90;;;;;;5036947;28;20268;-85
2023/06/30 05:17:08;;;;;;;5.50;2.13;;;16.60;99.90;;;;;;5036656;28;20203;-87
2023/06/30 05:19:37;;;;;;;8.00;2.35;;;16.70;58.20;;;;;;5036389;28;20198;-86
2023/06/30 05:22:04;;;;;;;7.32;2.13;;;16.70;22.40;;;;;;5037433;28;20549;-84
2023/06/30 05:24:33;;;;;;;7.38;2.15;;;16.80;1.00;;;;;;5036971;28;20527;-86
2023/06/30 05:27:00;;;;;;;4.85;1.83;;;16.90;1.00;;;;;;5036276;28;20203;-86
2023/06/30 05:29:29;;;;;;;11.18;2.30;;;17.10;1.00;;;;;;5037109;28;20219;-86
2023/06/30 05:31:56;;;;;;;8.73;2.17;;;17.30;1.00;;;;;;5036857;28;20261;-86
2023/06/30 05:34:23;;;;;;;5.30;1.88;;;17.50;1.00;;;;;;5036027;28;20607;-84
2023/06/30 05:36:51;;;;;;;3.47;1.60;;;17.60;1.00;;;;;;5036672;28;20236;-83
2023/06/30 05:39:18;;;;;;;7.35;2.03;;;17.80;1.00;;;;;;5035923;28;20278;-89
2023/06/30 05:41:45;;;;;;;5.07;1.95;;;18.00;1.00;;;;;;5035894;28;20269;-86
2023/06/30 05:44:12;;;;;;;4.15;1.65;;;18.30;1.00;;;;;;5036131;28;20202;-87
2023/06/30 05:46:39;;;;;;;2.15;1.40;;;18.60;1.00;;;;;;5034695;28;20282;-86
2023/06/30 05:49:06;;;;;;;4.65;1.77;;;18.80;1.00;;;;;;5035165;28;20316;-82
2023/06/30 05:51:34;;;;;;;3.13;1.50;;;19.10;99.90;;;;;;5034969;28;20205;-87
2023/06/30 05:54:03;;;;;;;5.28;1.75;;;19.20;99.90;;;;;;5052024;28;20208;-84
2023/06/30 05:56:30;;;;;;;4.38;1.70;;;19.50;99.90;;;;;;5055351;28;20218;-87
2023/06/30 05:58:58;;;;;;;5.88;1.35;;;19.70;99.90;;;;;;5056421;28;20195;-85
2023/06/30 06:01:25;;;;;;;4.18;1.67;;;19.90;99.90;;;;;;5055410;28;20218;-87
2023/06/30 06:03:52;;;;;;;6.18;2.30;;;20.10;99.90;;;;;;5056639;28;20275;-86
2023/06/30 06:06:19;;;;;;;6.70;1.50;;;20.20;99.90;;;;;;5044050;28;20206;-88
2023/06/30 06:08:48;;;;;;;5.20;1.40;;;20.30;99.90;;;;;;5035714;28;20919;-86
2023/06/30 06:11:16;;;;;;;6.38;1.58;;;20.40;99.90;;;;;;5049789;28;20209;-90
2023/06/30 06:13:43;;;;;;;5.80;1.75;;;20.50;99.90;;;;;;5055419;28;20233;-83
2023/06/30 06:16:10;;;;;;;4.68;1.65;;;20.60;99.90;;;;;;5055598;28;20251;-84
2023/06/30 06:18:37;;;;;;;2.10;1.17;;;20.80;99.90;;;;;;5055520;28;20259;-86
2023/06/30 06:21:05;;;;;;;9.60;1.77;;;20.90;99.90;;;;;;5055786;28;20272;-84
2023/06/30 06:23:32;;;;;;;7.10;1.85;;;21.20;99.90;;;;;;5055087;28;20277;-82
2023/06/30 06:25:59;;;;;;;3.25;1.40;;;21.40;99.90;;;;;;5055413;28;20198;-83
2023/06/30 06:28:27;;;;;;;4.85;1.42;;;21.60;99.90;;;;;;5039590;28;20268;-84
2023/06/30 06:30:54;;;;;;;4.05;1.60;;;21.50;99.90;;;;;;5034440;28;20228;-81
2023/06/30 06:33:21;;;;;;;3.08;1.20;;;21.40;99.90;;;;;;5034801;28;20489;-81
2023/06/30 06:35:51;;;;;;;4.70;1.25;;;21.20;99.90;;;;;;5034581;28;20289;-85
2023/06/30 06:38:18;;;;;;;3.45;1.42;;;21.30;99.90;;;;;;5036016;28;20302;-88
2023/06/30 06:40:45;;;;;;;6.65;1.60;;;21.40;99.90;;;;;;5035586;28;20256;-83
2023/06/30 06:43:12;;;;;;;3.90;1.55;;;21.60;99.90;;;;;;5036061;28;20209;-87
2023/06/30 06:45:42;;;;;;;4.93;1.55;;;21.60;99.90;;;;;;5047864;28;20212;-81
2023/06/30 06:48:21;;;;;;;5.28;1.58;;;21.50;99.90;;;;;;5054908;28;20214;-83
2023/06/30 06:50:48;;;;;;;4.15;1.35;;;21.30;99.90;;;;;;5054173;28;20213;-84
2023/06/30 06:53:19;;;;;;;3.10;1.33;;;21.10;99.90;;;;;;5055083;28;20255;-83
2023/06/30 06:55:47;;;;;;;3.65;1.73;;;21.20;99.90;;;;;;5037710;28;20210;-85
2023/06/30 06:58:14;;;;;;;4.63;1.67;;;21.40;99.90;;;;;;5034331;28;20246;-82
2023/06/30 07:00:43;;;;;;;1.80;1.30;;;21.70;99.90;;;;;;5035100;28;20282;-89
2023/06/30 07:03:10;;;;;;;2.30;1.30;;;22.00;99.90;;;;;;5035234;28;20195;-84
2023/06/30 07:05:39;;;;;;;4.32;1.33;;;22.30;99.90;;;;;;5034928;28;20257;-83
2023/06/30 07:08:06;;;;;;;5.00;1.85;;;22.60;99.90;;;;;;5035061;28;20221;-85
2023/06/30 07:10:33;;;;;;;2.47;1.00;;;22.80;99.90;;;;;;5034744;28;20292;-85
2023/06/30 07:13:00;;;;;;;2.25;1.30;;;22.80;99.90;;;;;;5034155;28;20202;-87
2023/06/30 07:15:27;;;;;;;1.42;1.00;;;22.80;99.90;;;;;;5035811;28;20202;-91
2023/06/30 07:17:56;;;;;;;2.67;1.30;;;22.70;99.90;;;;;;5034298;28;20294;-88
2023/06/30 07:20:23;;;;;;;2.80;1.48;;;23.00;99.90;;;;;;5034441;28;20218;-87
2023/06/30 07:22:51;;;;;;;3.00;1.08;;;23.30;99.90;;;;;;5034950;28;20198;-83
2023/06/30 07:25:18;;;;;;;3.22;1.25;;;23.60;99.90;;;;;;5034998;28;20662;-88
2023/06/30 07:27:52;;;;;;;3.05;1.30;;;24.00;99.90;;;;;;5034029;28;20195;-86
2023/06/30 07:30:20;;;;;;;4.05;1.40;;;24.20;99.90;;;;;;5034303;28;20230;-84
2023/06/30 07:32:47;;;;;;;3.30;1.20;;;24.50;99.90;;;;;;5033619;28;20202;-86
2023/06/30 07:35:16;;;;;;;2.33;1.20;;;24.60;99.90;;;;;;5043953;28;20206;-83
2023/06/30 07:37:43;;;;;;;2.13;1.20;;;24.60;99.90;;;;;;5053721;28;20617;-88
2023/06/30 07:40:11;;;;;;;3.47;1.42;;;24.60;99.90;;;;;;5037039;28;20265;-83
2023/06/30 07:42:38;;;;;;;4.00;1.30;;;24.80;99.90;;;;;;5034978;28;20199;-83
2023/06/30 07:45:09;;;;;;;2.20;1.40;;;24.60;99.90;;;;;;5034827;28;20209;-90
2023/06/30 07:47:36;;;;;;;4.90;1.70;;;24.50;99.90;;;;;;5035835;28;20234;-86
2023/06/30 07:50:09;;;;;;;5.65;2.13;;;24.70;99.90;;;;;;5035110;28;20215;-84
2023/06/30 07:52:37;;;;;;;3.05;1.80;;;24.90;99.90;;;;;;5035549;28;20802;-85
2023/06/30 07:55:05;;;;;;;3.10;1.63;;;24.90;99.90;;;;;;5033594;28;20214;-84
2023/06/30 07:57:32;;;;;;;2.72;1.55;;;25.00;99.90;;;;;;5045929;28;20244;-86
2023/06/30 07:59:59;;;;;;;3.33;1.65;;;24.80;99.90;;;;;;5055282;28;20225;-89
2023/06/30 08:02:26;;;;;;;5.85;1.83;;;24.80;99.90;;;;;;5055246;28;20209;-83
2023/06/30 08:04:53;;;;;;;4.40;1.60;;;25.00;99.90;;;;;;5044623;28;20203;-89
2023/06/30 08:07:20;;;;;;;4.80;1.40;;;25.10;99.90;;;;;;5035325;28;20268;-90
2023/06/30 08:09:48;;;;;;;5.47;2.10;;;25.10;99.90;;;;;;5035040;28;20234;-89
2023/06/30 08:12:16;;;;;;;3.10;1.65;;;25.30;99.90;;;;;;5035067;28;20203;-91
2023/06/30 08:14:43;;;;;;;4.43;1.80;;;25.40;99.90;;;;;;5050917;28;20252;-88
2023/06/30 08:17:10;;;;;;;3.90;1.50;;;25.60;99.90;;;;;;5057835;28;20202;-86
2023/06/30 08:19:41;;;;;;;3.60;1.30;;;25.80;99.90;;;;;;5058927;28;20194;-86
2023/06/30 08:22:08;;;;;;;2.88;1.60;;;26.00;99.90;;;;;;5049504;28;20237;-87
2023/06/30 08:24:35;;;;;;;4.07;1.40;;;26.00;99.90;;;;;;5038321;28;20207;-89
2023/06/30 08:27:05;;;;;;;2.17;1.13;;;26.10;99.90;;;;;;5038346;28;20199;-91
2023/06/30 08:29:32;;;;;;;2.22;1.10;;;26.20;99.90;;;;;;5053959;28;20214;-85
2023/06/30 08:31:59;;;;;;;2.33;1.35;;;26.20;99.90;;;;;;5058268;28;20659;-88
2023/06/30 08:34:26;;;;;;;3.28;1.50;;;26.10;99.80;;;;;;5057924;28;20293;-86
2023/06/30 08:36:53;;;;;;;2.58;1.25;;;26.00;98.90;;;;;;5037938;28;20225;-87
2023/06/30 08:39:21;;;;;;;4.57;1.33;;;25.80;97.70;;;;;;5038376;28;20199;-88
2023/06/30 08:41:50;;;;;;;3.42;1.20;;;25.70;96.60;;;;;;5038534;28;20245;-88
2023/06/30 08:44:22;;;;;;;3.47;1.35;;;25.70;97.10;;;;;;5056315;28;20209;-84
2023/06/30 08:46:50;;;;;;;2.88;1.27;;;25.70;95.80;;;;;;5057974;28;20263;-88
2023/06/30 08:49:18;;;;;;;3.65;1.35;;;25.70;94.40;;;;;;5057554;28;20253;-87
2023/06/30 08:51:46;;;;;;;2.97;1.45;;;25.70;94.00;;;;;;5057026;28;20271;-85
2023/06/30 08:54:13;;;;;;;2.75;1.20;;;25.70;94.20;;;;;;5057643;28;20194;-85
2023/06/30 08:56:40;;;;;;;3.85;1.48;;;25.70;94.10;;;;;;5051025;28;20241;-84
2023/06/30 08:59:08;;;;;;;2.90;0.90;;;25.80;99.90;;;;;;5037892;28;20219;-83
2023/06/30 09:01:38;;;;;;;3.35;1.05;;;25.90;94.00;;;;;;5037464;28;20199;-85
2023/06/30 09:04:06;;;;;;;2.50;1.30;;;26.00;93.60;;;;;;5038489;28;20199;-86
2023/06/30 09:06:36;;;;;;;2.05;1.35;;;26.10;92.10;;;;;;5037696;28;20210;-86
2023/06/30 09:09:07;;;;;;;1.70;1.20;;;25.90;90.30;;;;;;5037333;28;20321;-81
2023/06/30 09:11:35;;;;;;;2.22;1.00;;;25.70;90.70;;;;;;5037550;28;20541;-84
2023/06/30 09:14:03;;;;;;;3.38;1.33;;;25.70;90.30;;;;;;5037366;28;20260;-81
2023/06/30 09:16:32;;;;;;;1.63;0.90;;;25.70;90.60;;;;;;5036146;28;20198;-85
2023/06/30 09:19:00;;;;;;;6.63;1.45;;;25.80;89.80;;;;;;5037669;28;20202;-85
2023/06/30 09:21:27;;;;;;;3.78;1.30;;;25.80;87.70;;;;;;5043462;28;20554;-85
2023/06/30 09:23:54;;;;;;;1.27;1.05;;;25.50;83.70;;;;;;5057504;28;20197;-85
2023/06/30 09:26:21;;;;;;;1.75;1.10;;;25.20;81.40;;;;;;5057075;28;20190;-85
2023/06/30 09:28:49;;;;;;;4.68;1.30;;;25.00;80.60;;;;;;5051360;28;20202;-85
2023/06/30 09:31:17;;;;;;;3.67;1.92;;;24.90;79.50;;;;;;5037008;28;20251;-85
2023/06/30 09:33:47;;;;;;;2.63;1.10;;;24.70;77.60;;;;;;5037324;28;20198;-85
2023/06/30 09:36:18;;;;;;;4.38;1.50;;;24.60;77.20;;;;;;5039274;28;20206;-84
2023/06/30 09:38:45;;;;;;;1.13;1.00;;;24.50;77.10;;;;;;5040679;28;20223;-85
2023/06/30 09:41:20;;;;;;;5.90;1.35;;;24.40;76.30;;;;;;5055305;28;20285;-84
2023/06/30 09:43:48;;;;;;;5.30;1.50;;;24.20;76.10;;;;;;5056007;28;20198;-86
2023/06/30 09:46:15;;;;;;;3.25;1.52;;;24.10;78.80;;;;;;5040655;28;20261;-84
2023/06/30 09:48:43;;;;;;;2.83;1.45;;;24.10;80.60;;;;;;5036606;28;20266;-84
2023/06/30 09:51:12;;;;;;;2.92;1.15;;;24.30;80.40;;;;;;5036785;28;20227;-85
2023/06/30 09:53:41;;;;;;;6.38;1.58;;;24.60;81.70;;;;;;5036340;28;20199;-84
2023/06/30 09:56:09;;;;;;;3.83;1.52;;;24.90;82.30;;;;;;5036545;28;20285;-86
2023/06/30 09:58:39;;;;;;;3.13;1.20;;;25.00;79.70;;;;;;5035850;28;20719;-86
2023/06/30 10:01:06;;;;;;;3.22;1.38;;;25.20;77.70;;;;;;5035794;28;20567;-85
2023/06/30 10:03:33;;;;;;;4.55;2.15;;;25.40;76.60;;;;;;5036049;28;20201;-82
2023/06/30 10:06:00;;;;;;;3.33;1.25;;;25.60;75.50;;;;;;5035186;28;20248;-80
2023/06/30 10:08:27;;;;;;;4.55;1.52;;;25.80;76.90;;;;;;5034360;28;20249;-85
2023/06/30 10:10:57;;;;;;;3.72;1.42;;;25.70;75.50;;;;;;5035786;28;20226;-89
2023/06/30 10:13:25;;;;;;;4.75;1.55;;;25.80;73.50;;;;;;5036067;28;20198;-83
2023/06/30 10:15:53;;;;;;;2.25;1.35;;;25.80;72.40;;;;;;5035573;28;20206;-84
2023/06/30 10:18:21;;;;;;;3.83;1.40;;;25.90;73.30;;;;;;5043355;28;20667;-86
2023/06/30 10:20:48;;;;;;;4.97;1.13;;;25.80;72.20;;;;;;5055851;28;20217;-85
2023/06/30 10:23:15;;;;;;;2.08;1.40;;;26.00;72.70;;;;;;5055179;28;20202;-86
2023/06/30 10:25:43;;;;;;;3.38;1.48;;;25.90;71.90;;;;;;5056105;28;20292;-84
2023/06/30 10:28:11;;;;;;;3.58;1.20;;;25.90;72.10;;;;;;5055292;28;20212;-83
2023/06/30 10:30:39;;;;;;;4.72;1.30;;;26.00;69.70;;;;;;5055107;28;20313;-83
2023/06/30 10:33:06;;;;;;;2.80;1.48;;;26.10;70.70;;;;;;5047240;28;20236;-85
2023/06/30 10:35:35;;;;;;;3.00;1.25;;;26.40;71.40;;;;;;5036574;28;20230;-85
2023/06/30 10:38:02;;;;;;;2.83;1.30;;;26.50;71.20;;;;;;5055324;28;20204;-85
2023/06/30 10:40:31;;;;;;;3.42;1.33;;;26.50;70.80;;;;;;5055346;28;20255;-87
2023/06/30 10:42:59;;;;;;;4.63;1.42;;;26.70;72.40;;;;;;5036953;28;20206;-83
2023/06/30 10:45:31;;;;;;;3.55;1.13;;;26.70;69.80;;;;;;5035583;28;20559;-87
2023/06/30 10:47:58;;;;;;;3.92;1.52;;;26.50;68.50;;;;;;5036135;28;20222;-81
2023/06/30 10:50:25;;;;;;;3.45;1.38;;;26.40;66.20;;;;;;5034911;28;20219;-82
2023/06/30 10:52:53;;;;;;;3.25;1.40;;;26.50;66.60;;;;;;5035316;28;20329;-81
2023/06/30 10:55:21;;;;;;;2.47;1.33;;;26.70;67.70;;;;;;5035623;28;20198;-81
2023/06/30 10:57:53;;;;;;;3.00;1.23;;;26.80;67.10;;;;;;5034429;28;20237;-84
2023/06/30 11:00:24;;;;;;;2.58;1.30;;;26.80;66.70;;;;;;5034714;28;20588;-84
2023/06/30 11:02:56;;;;;;;3.83;1.50;;;26.90;66.90;;;;;;5051390;28;20202;-84
2023/06/30 11:05:25;;;;;;;4.90;1.48;;;26.90;66.80;;;;;;5054793;28;20194;-83
2023/06/30 11:07:53;;;;;;;5.90;1.58;;;26.90;66.30;;;;;;5055026;28;20229;-86
2023/06/30 11:10:28;;;;;;;2.13;1.33;;;26.80;64.40;;;;;;5054658;28;20316;-85
2023/06/30 11:12:56;;;;;;;3.35;1.38;;;26.80;64.50;;;;;;5054347;28;20201;-85
2023/06/30 11:15:28;;;;;;;4.57;1.75;;;26.70;63.90;;;;;;5054424;28;20198;-80
2023/06/30 11:18:03;;;;;;;3.53;1.30;;;26.70;63.60;;;;;;5053841;28;20197;-79
2023/06/30 11:20:30;;;;;;;5.28;1.98;;;26.50;63.60;;;;;;5048017;28;20244;-88
2023/06/30 11:23:00;;;;;;;2.83;1.48;;;26.60;63.20;;;;;;5035752;28;20230;-86
2023/06/30 11:25:28;;;;;;;4.65;1.60;;;26.60;60.60;;;;;;5035654;28;20199;-84
2023/06/30 11:27:56;;;;;;;2.70;1.23;;;26.70;60.00;;;;;;5035784;28;20198;-86
2023/06/30 11:30:24;;;;;;;2.75;1.50;;;26.80;59.50;;;;;;5035933;28;20543;-89
2023/06/30 11:32:59;;;;;;;3.63;1.60;;;26.90;58.20;;;;;;5034628;28;20625;-85
2023/06/30 11:35:29;;;;;;;2.47;1.60;;;26.80;55.60;;;;;;5035065;28;20273;-85
2023/06/30 11:37:56;;;;;;;3.35;1.70;;;26.80;55.20;;;;;;5035067;28;20261;-85
2023/06/30 11:40:23;;;;;;;4.15;1.70;;;26.90;55.10;;;;;;5034631;28;20293;-88
2023/06/30 11:42:52;;;;;;;3.53;1.70;;;27.00;54.80;;;;;;5034813;28;20205;-85
2023/06/30 11:45:20;;;;;;;4.82;1.55;;;27.00;53.00;;;;;;5034377;28;20202;-81
2023/06/30 11:47:51;;;;;;;4.03;1.30;;;27.10;53.20;;;;;;5034585;28;20264;-89
2023/06/30 11:50:19;;;;;;;5.88;1.48;;;27.10;52.40;;;;;;5036206;28;20273;-83
2023/06/30 11:52:48;;;;;;;3.17;1.40;;;27.10;52.10;;;;;;5038644;28;20198;-85
2023/06/30 11:55:16;;;;;;;4.65;1.52;;;27.10;51.90;;;;;;5038276;28;20305;-83
2023/06/30 11:57:46;;;;;;;3.97;1.67;;;27.10;52.10;;;;;;5037194;28;20249;-79
2023/06/30 12:00:17;;;;;;;4.90;2.00;;;27.20;52.00;;;;;;5037671;28;20256;-84
2023/06/30 12:02:46;;;;;;;3.67;1.60;;;27.20;51.10;;;;;;5041300;28;20195;-81
2023/06/30 12:05:16;;;;;;;5.07;1.60;;;27.10;49.90;;;;;;5057859;28;20198;-79
2023/06/30 12:07:44;;;;;;;2.95;1.60;;;27.10;48.80;;;;;;5057125;28;20198;-78
2023/06/30 12:10:12;;;;;;;9.43;2.00;;;27.20;49.40;;;;;;5043875;28;20207;-83
2023/06/30 12:12:39;;;;;;;4.68;1.67;;;27.10;48.10;;;;;;5036829;28;20198;-82
2023/06/30 12:15:09;;;;;;;5.47;1.98;;;27.00;46.50;;;;;;5036505;28;20202;-84
2023/06/30 12:17:39;;;;;;;5.10;1.75;;;27.00;47.10;;;;;;5036694;28;20207;-80
2023/06/30 12:20:08;;;;;;;5.70;1.80;;;26.80;44.50;;;;;;5037213;28;20198;-82
2023/06/30 12:22:36;;;;;;;8.90;1.83;;;26.90;45.00;;;;;;5036271;28;20274;-82
2023/06/30 12:25:07;;;;;;;4.57;2.10;;;26.80;43.80;;;;;;5036825;28;20202;-84
2023/06/30 12:27:38;;;;;;;5.15;2.05;;;26.80;43.80;;;;;;5037709;28;20186;-84
2023/06/30 12:30:14;;;;;;;5.65;2.85;;;26.80;43.00;;;;;;5036067;28;20191;-78
2023/06/30 12:32:41;;;;;;;9.23;2.90;;;26.70;41.60;;;;;;5037519;28;20293;-83
2023/06/30 12:35:09;;;;;;;14.52;3.63;;;26.60;40.90;;;;;;5037686;28;20210;-79
2023/06/30 12:37:36;;;;;;;7.30;4.00;;;26.50;39.20;;;;;;5036305;28;20272;-82
2023/06/30 12:40:05;;;;;;;11.32;3.85;;;26.20;37.30;;;;;;5037121;28;20257;-79
2023/06/30 12:42:33;;;;;;;11.75;3.53;;;26.20;36.90;;;;;;5035166;28;20213;-80
2023/06/30 12:45:01;;;;;;;7.07;3.90;;;26.30;37.70;;;;;;5044068;28;20601;-82
2023/06/30 12:47:28;;;;;;;10.68;3.67;;;26.20;36.50;;;;;;5056514;28;20222;-79
2023/06/30 12:49:55;;;;;;;7.18;3.45;;;26.10;35.90;;;;;;5056485;28;20220;-79
2023/06/30 12:52:22;;;;;;;10.05;3.95;;;26.10;36.40;;;;;;5039155;28;20638;-78
2023/06/30 12:54:49;;;;;;;9.80;3.90;;;26.10;36.60;;;;;;5035959;28;20606;-79